Time;durP1;ratioP1;P1;durP2;ratioP2;P2;SDS_P1;SDS_P2;PMS_P1;PMS_P2;Temp;Humidity;BMP_temperature;BMP_pressure;BME280_temperature;BME280_humidity;BME280_pressure;Samples;Min_cycle;Max_cycle;Signal;HPM_P1;HPM_P2
2023/04/23 00:00:42;;;;;;;5.80;2.35;;;13.20;62.50;;;;;;5074732;28;20043;-74
2023/04/23 00:03:11;;;;;;;4.70;2.30;;;13.20;63.10;;;;;;5074716;28;20050;-75
2023/04/23 00:05:38;;;;;;;6.57;2.00;;;13.10;63.40;;;;;;5074605;28;20024;-74
2023/04/23 00:08:04;;;;;;;6.97;2.58;;;13.10;63.60;;;;;;5074590;28;20023;-74
2023/04/23 00:10:30;;;;;;;7.93;2.70;;;13.10;64.00;;;;;;5074771;28;20032;-76
2023/04/23 00:12:56;;;;;;;4.18;2.17;;;13.10;64.30;;;;;;5074668;28;20020;-74
2023/04/23 00:15:22;;;;;;;8.02;2.58;;;13.00;63.90;;;;;;5074506;28;20043;-77
2023/04/23 00:17:48;;;;;;;5.22;2.35;;;13.00;63.80;;;;;;5074636;28;20036;-74
2023/04/23 00:20:15;;;;;;;6.07;2.60;;;13.10;64.00;;;;;;5074684;28;20021;-75
2023/04/23 00:22:41;;;;;;;5.65;2.05;;;13.00;64.10;;;;;;5056355;28;20365;-75
2023/04/23 00:25:08;;;;;;;10.98;2.80;;;12.90;64.80;;;;;;5074613;28;20029;-76
2023/04/23 00:27:33;;;;;;;6.85;2.60;;;13.00;64.70;;;;;;5074520;28;20064;-76
2023/04/23 00:29:59;;;;;;;11.35;2.78;;;12.90;65.20;;;;;;5074174;28;20059;-76
2023/04/23 00:32:25;;;;;;;7.03;3.17;;;12.90;66.00;;;;;;5074303;28;20587;-75
2023/04/23 00:34:50;;;;;;;5.18;2.58;;;12.80;66.10;;;;;;5074031;28;20496;-74
2023/04/23 00:37:16;;;;;;;7.00;3.00;;;12.80;66.80;;;;;;5074043;28;20082;-77
2023/04/23 00:39:42;;;;;;;7.80;2.80;;;12.80;66.40;;;;;;5074231;28;20024;-76
2023/04/23 00:42:11;;;;;;;6.10;2.40;;;12.80;67.70;;;;;;5074143;28;20650;-74
2023/04/23 00:44:42;;;;;;;3.60;2.67;;;12.70;67.60;;;;;;5073915;28;20021;-74
2023/04/23 00:47:08;;;;;;;5.38;2.45;;;12.70;67.00;;;;;;5073998;28;20024;-74
2023/04/23 00:49:35;;;;;;;5.88;2.42;;;12.70;67.60;;;;;;5073871;28;20461;-74
2023/04/23 00:52:04;;;;;;;10.77;2.72;;;12.70;67.80;;;;;;5079578;28;20484;-73
2023/04/23 00:54:30;;;;;;;5.55;2.75;;;12.70;67.70;;;;;;5074714;28;20048;-75
2023/04/23 00:56:59;;;;;;;3.80;1.95;;;12.80;67.50;;;;;;5074626;28;20071;-74
2023/04/23 00:59:25;;;;;;;6.97;2.55;;;12.70;68.00;;;;;;5073798;28;20024;-76
2023/04/23 01:01:51;;;;;;;4.35;2.30;;;12.80;68.20;;;;;;5073775;28;20384;-75
2023/04/23 01:04:18;;;;;;;6.55;2.33;;;12.80;68.20;;;;;;5073779;28;20485;-74
2023/04/23 01:06:45;;;;;;;6.43;2.67;;;12.70;68.60;;;;;;5073446;28;20028;-73
2023/04/23 01:09:11;;;;;;;5.55;2.17;;;12.70;68.70;;;;;;5073588;28;20100;-74
2023/04/23 01:11:38;;;;;;;6.57;2.60;;;12.70;69.00;;;;;;5073531;28;20052;-74
2023/04/23 01:14:04;;;;;;;4.13;2.50;;;12.70;69.30;;;;;;5073414;28;20024;-74
2023/04/23 01:16:30;;;;;;;5.03;2.35;;;12.60;69.50;;;;;;5073376;28;20032;-74
2023/04/23 01:18:57;;;;;;;5.25;2.33;;;12.60;70.20;;;;;;5073371;28;20142;-74
2023/04/23 01:21:23;;;;;;;5.93;2.92;;;12.60;70.80;;;;;;5073322;28;20489;-73
2023/04/23 01:23:49;;;;;;;5.88;2.53;;;12.60;70.90;;;;;;5073182;28;20024;-74
2023/04/23 01:26:15;;;;;;;3.85;1.70;;;12.50;71.70;;;;;;5073231;28;20032;-75
2023/04/23 01:28:43;;;;;;;5.53;2.08;;;12.40;71.40;;;;;;5073282;28;20075;-74
2023/04/23 01:31:09;;;;;;;3.42;1.63;;;12.30;72.20;;;;;;5073299;28;20024;-74
2023/04/23 01:33:34;;;;;;;6.30;1.90;;;12.30;72.80;;;;;;5073124;28;20078;-76
2023/04/23 01:36:01;;;;;;;3.75;1.60;;;12.20;73.50;;;;;;5072933;28;20110;-74
2023/04/23 01:38:29;;;;;;;3.55;1.20;;;12.30;72.90;;;;;;5073124;28;20427;-75
2023/04/23 01:40:55;;;;;;;2.25;1.30;;;12.20;72.30;;;;;;5072740;28;20028;-75
2023/04/23 01:43:21;;;;;;;3.88;1.30;;;12.30;73.00;;;;;;5072838;28;20029;-74
2023/04/23 01:45:47;;;;;;;2.22;1.17;;;12.30;72.50;;;;;;5073032;28;20028;-74
2023/04/23 01:48:13;;;;;;;2.08;1.13;;;12.20;73.30;;;;;;5073001;28;20055;-75
2023/04/23 01:50:39;;;;;;;2.45;1.00;;;12.30;73.40;;;;;;5055038;28;20025;-75
2023/04/23 01:53:05;;;;;;;1.73;1.15;;;12.20;73.40;;;;;;5073035;28;20024;-76
2023/04/23 01:55:31;;;;;;;4.93;1.23;;;12.10;73.80;;;;;;5073031;28;20040;-75
2023/04/23 01:57:57;;;;;;;2.85;0.85;;;12.10;73.90;;;;;;5072859;28;20048;-75
2023/04/23 02:00:22;;;;;;;1.98;0.80;;;12.10;73.10;;;;;;5072677;28;20043;-75
2023/04/23 02:02:49;;;;;;;1.38;0.95;;;12.00;74.00;;;;;;5072867;28;20032;-75
2023/04/23 02:05:19;;;;;;;0.90;0.77;;;12.00;74.00;;;;;;5072881;28;20017;-75
2023/04/23 02:07:48;;;;;;;2.78;0.60;;;12.00;74.30;;;;;;5072902;28;20041;-75
2023/04/23 02:10:14;;;;;;;1.33;0.82;;;12.00;74.30;;;;;;5072790;28;20506;-75
2023/04/23 02:12:40;;;;;;;1.13;0.73;;;12.00;73.70;;;;;;5072577;28;20094;-75
2023/04/23 02:15:07;;;;;;;1.75;0.70;;;12.00;75.00;;;;;;5072747;28;20052;-75
2023/04/23 02:17:34;;;;;;;2.70;1.13;;;11.90;74.80;;;;;;5072682;28;20041;-75
2023/04/23 02:20:00;;;;;;;1.60;0.70;;;12.00;74.80;;;;;;5072634;28;20021;-76
2023/04/23 02:22:27;;;;;;;2.28;0.93;;;11.80;74.90;;;;;;5072739;28;20028;-75
2023/04/23 02:24:53;;;;;;;2.88;1.25;;;11.90;75.30;;;;;;5072635;28;20021;-75
2023/04/23 02:27:19;;;;;;;2.90;1.33;;;11.80;74.70;;;;;;5072589;28;20119;-75
2023/04/23 02:29:47;;;;;;;1.27;0.98;;;11.80;75.10;;;;;;5072572;28;20578;-75
2023/04/23 02:32:13;;;;;;;6.05;1.13;;;11.80;75.70;;;;;;5072562;28;20024;-75
2023/04/23 02:34:39;;;;;;;1.58;0.75;;;11.80;76.10;;;;;;5072414;28;20032;-74
2023/04/23 02:37:05;;;;;;;1.95;0.77;;;11.80;76.30;;;;;;5072431;28;20038;-74
2023/04/23 02:39:30;;;;;;;1.27;0.50;;;11.90;76.20;;;;;;5072544;28;20017;-75
2023/04/23 02:41:57;;;;;;;1.13;0.77;;;11.80;76.90;;;;;;5072375;28;20031;-75
2023/04/23 02:44:25;;;;;;;0.80;0.80;;;11.80;77.20;;;;;;5054540;28;20036;-74
2023/04/23 02:46:51;;;;;;;0.80;0.60;;;11.80;76.90;;;;;;5072533;28;20488;-74
2023/04/23 02:49:19;;;;;;;1.50;0.68;;;11.90;77.20;;;;;;5072451;28;20031;-75
2023/04/23 02:51:45;;;;;;;1.35;0.52;;;11.90;77.70;;;;;;5072153;28;20042;-74
2023/04/23 02:54:11;;;;;;;1.40;0.70;;;11.80;76.90;;;;;;5075328;28;20024;-74
2023/04/23 02:56:36;;;;;;;0.70;0.50;;;11.90;76.30;;;;;;5057938;28;20499;-74
2023/04/23 02:59:02;;;;;;;1.15;0.57;;;11.80;76.00;;;;;;5076049;28;20111;-76
2023/04/23 03:01:27;;;;;;;1.00;0.65;;;11.80;76.60;;;;;;5075895;28;20488;-74
2023/04/23 03:03:53;;;;;;;1.10;0.50;;;11.80;77.30;;;;;;5075901;28;20094;-75
2023/04/23 03:06:19;;;;;;;2.33;0.85;;;11.80;77.60;;;;;;5057876;28;20017;-75
2023/04/23 03:08:44;;;;;;;1.60;0.80;;;11.90;78.40;;;;;;5075729;28;20032;-76
2023/04/23 03:11:10;;;;;;;0.82;0.50;;;11.80;78.80;;;;;;5075789;28;20020;-75
2023/04/23 03:13:36;;;;;;;0.90;0.60;;;11.80;79.10;;;;;;5057706;28;20021;-76
2023/04/23 03:16:02;;;;;;;1.20;0.60;;;11.70;79.20;;;;;;5057636;28;20027;-75
2023/04/23 03:18:27;;;;;;;2.58;0.90;;;11.70;79.70;;;;;;5075658;28;20035;-75
2023/04/23 03:20:53;;;;;;;1.63;0.43;;;11.70;80.50;;;;;;5075477;28;20021;-75
2023/04/23 03:23:18;;;;;;;1.40;0.60;;;11.60;78.30;;;;;;5075522;28;20448;-75
2023/04/23 03:25:44;;;;;;;1.00;0.50;;;11.50;75.70;;;;;;5075443;28;20088;-74
2023/04/23 03:28:09;;;;;;;1.17;0.70;;;11.50;76.40;;;;;;5075513;28;20028;-75
2023/04/23 03:30:35;;;;;;;0.70;0.40;;;11.50;74.40;;;;;;5057317;28;20021;-75
2023/04/23 03:33:02;;;;;;;1.05;0.40;;;11.40;73.30;;;;;;5075285;28;20069;-75
2023/04/23 03:35:27;;;;;;;1.25;0.68;;;11.40;73.80;;;;;;5075144;28;20045;-74
2023/04/23 03:37:53;;;;;;;0.52;0.30;;;11.40;73.10;;;;;;5075191;28;20374;-76
2023/04/23 03:40:19;;;;;;;0.20;0.17;;;11.30;73.40;;;;;;5075373;28;20048;-76
2023/04/23 03:42:45;;;;;;;0.80;0.30;;;11.30;73.20;;;;;;5075468;28;20064;-76
2023/04/23 03:45:12;;;;;;;0.68;0.35;;;11.30;73.50;;;;;;5075150;28;20056;-76
2023/04/23 03:47:38;;;;;;;2.90;0.40;;;11.20;73.10;;;;;;5075143;28;20065;-74
2023/04/23 03:50:05;;;;;;;0.30;0.20;;;11.20;73.30;;;;;;5074905;28;20024;-75
2023/04/23 03:52:31;;;;;;;2.20;0.40;;;11.20;73.20;;;;;;5074929;28;20020;-75
2023/04/23 03:54:56;;;;;;;2.20;0.70;;;11.20;73.60;;;;;;5074853;28;20044;-76
2023/04/23 03:57:22;;;;;;;2.63;0.40;;;11.20;74.00;;;;;;5074810;28;20389;-75
2023/04/23 03:59:47;;;;;;;0.73;0.47;;;11.20;74.20;;;;;;5074863;28;20436;-74
2023/04/23 04:02:13;;;;;;;1.33;0.45;;;11.20;74.80;;;;;;5074857;28;20036;-74
2023/04/23 04:04:39;;;;;;;0.98;0.40;;;11.20;74.90;;;;;;5074300;28;20021;-75
2023/04/23 04:07:06;;;;;;;0.40;0.40;;;11.20;75.10;;;;;;5064945;28;20056;-77
2023/04/23 04:09:31;;;;;;;1.23;0.50;;;11.30;75.20;;;;;;5054879;28;20100;-76
2023/04/23 04:11:57;;;;;;;0.90;0.45;;;11.30;75.70;;;;;;5054678;28;20513;-76
2023/04/23 04:14:22;;;;;;;0.40;0.40;;;11.40;75.90;;;;;;5054633;28;20038;-76
2023/04/23 04:16:48;;;;;;;0.52;0.43;;;11.40;76.50;;;;;;5054400;28;20037;-73
2023/04/23 04:19:14;;;;;;;0.95;0.40;;;11.40;76.90;;;;;;5054602;28;20100;-74
2023/04/23 04:21:39;;;;;;;0.68;0.60;;;11.40;77.40;;;;;;5054395;28;20025;-73
2023/04/23 04:24:05;;;;;;;1.75;0.68;;;11.40;78.10;;;;;;5054468;28;20075;-74
2023/04/23 04:26:31;;;;;;;1.42;0.93;;;11.30;79.00;;;;;;5054148;28;20028;-74
2023/04/23 04:28:58;;;;;;;0.45;0.43;;;11.30;79.20;;;;;;5054332;28;20396;-74
2023/04/23 04:31:24;;;;;;;0.50;0.50;;;11.20;79.10;;;;;;5054325;28;20021;-74
2023/04/23 04:33:50;;;;;;;0.40;0.40;;;11.20;78.90;;;;;;5054635;28;20025;-73
2023/04/23 04:36:15;;;;;;;1.05;0.50;;;11.10;79.80;;;;;;5053944;28;20095;-73
2023/04/23 04:38:42;;;;;;;0.30;0.30;;;11.10;80.10;;;;;;5054158;28;20089;-73
2023/04/23 04:41:08;;;;;;;1.38;0.50;;;11.10;80.20;;;;;;5053968;28;20018;-73
2023/04/23 04:43:33;;;;;;;0.60;0.50;;;11.20;80.20;;;;;;5053895;28;20035;-73
2023/04/23 04:46:00;;;;;;;0.85;0.47;;;11.20;79.80;;;;;;5054210;28;20021;-74
2023/04/23 04:48:25;;;;;;;0.50;0.40;;;11.10;78.30;;;;;;5054028;28;20056;-74
2023/04/23 04:50:51;;;;;;;1.83;0.45;;;11.20;77.60;;;;;;5054034;28;20028;-74
2023/04/23 04:53:16;;;;;;;0.80;0.50;;;11.20;77.60;;;;;;5053861;28;20473;-74
2023/04/23 04:55:42;;;;;;;0.77;0.50;;;11.20;75.90;;;;;;5053724;28;20363;-74
2023/04/23 04:58:08;;;;;;;0.65;0.50;;;11.20;76.10;;;;;;5053737;28;20060;-75
2023/04/23 05:00:33;;;;;;;1.40;0.60;;;11.30;77.00;;;;;;5053676;28;20474;-73
2023/04/23 05:02:59;;;;;;;0.98;0.40;;;11.20;75.30;;;;;;5053659;28;20123;-74
2023/04/23 05:05:26;;;;;;;0.85;0.45;;;11.30;75.70;;;;;;5053511;28;20032;-75
2023/04/23 05:07:58;;;;;;;0.63;0.50;;;11.40;76.40;;;;;;5035782;28;20021;-74
2023/04/23 05:10:24;;;;;;;2.65;0.50;;;11.40;77.10;;;;;;5053479;28;20029;-74
2023/04/23 05:12:50;;;;;;;1.70;0.52;;;11.40;77.50;;;;;;5053811;28;20370;-74
2023/04/23 05:15:16;;;;;;;0.63;0.50;;;11.40;77.70;;;;;;5053721;28;20435;-73
2023/04/23 05:17:42;;;;;;;0.50;0.50;;;11.50;77.70;;;;;;5052471;28;20050;-75
2023/04/23 05:20:09;;;;;;;0.50;0.50;;;11.50;77.80;;;;;;5035752;28;20021;-74
2023/04/23 05:22:40;;;;;;;1.33;0.45;;;11.50;78.10;;;;;;5053358;28;20036;-74
2023/04/23 05:25:06;;;;;;;0.90;0.65;;;11.50;78.00;;;;;;5053592;28;20025;-76
2023/04/23 05:27:32;;;;;;;2.20;0.73;;;11.50;78.00;;;;;;5053370;28;20401;-74
2023/04/23 05:29:59;;;;;;;0.68;0.57;;;11.50;78.00;;;;;;5053359;28;20049;-74
2023/04/23 05:32:25;;;;;;;1.13;0.50;;;11.60;78.10;;;;;;5035487;28;20032;-74
2023/04/23 05:34:50;;;;;;;0.85;0.80;;;11.60;78.80;;;;;;5053162;28;20461;-75
2023/04/23 05:37:16;;;;;;;1.88;0.73;;;11.60;77.60;;;;;;5053216;28;20048;-76
2023/04/23 05:39:41;;;;;;;1.55;0.90;;;11.70;77.70;;;;;;5053046;28;20022;-76
2023/04/23 05:42:07;;;;;;;4.03;0.95;;;11.70;76.60;;;;;;5053261;28;20032;-74
2023/04/23 05:44:32;;;;;;;1.48;0.88;;;11.80;76.80;;;;;;5035327;28;20023;-76
2023/04/23 05:46:58;;;;;;;1.02;0.60;;;11.90;77.20;;;;;;5053392;28;20496;-75
2023/04/23 05:49:23;;;;;;;1.98;0.55;;;11.90;77.10;;;;;;5060240;28;20120;-75
2023/04/23 05:51:50;;;;;;;1.40;0.52;;;12.00;76.60;;;;;;5073327;28;20016;-74
2023/04/23 05:54:16;;;;;;;0.73;0.40;;;12.10;73.10;;;;;;5073377;28;20052;-74
2023/04/23 05:56:41;;;;;;;1.50;0.60;;;12.20;72.70;;;;;;5073121;28;20068;-74
2023/04/23 05:59:07;;;;;;;3.55;0.50;;;12.30;72.80;;;;;;5072956;28;20025;-75
2023/04/23 06:01:32;;;;;;;2.25;0.60;;;12.40;72.70;;;;;;5073145;28;20040;-74
2023/04/23 06:03:58;;;;;;;1.65;0.73;;;12.50;72.30;;;;;;5073078;28;20107;-74
2023/04/23 06:06:25;;;;;;;0.40;0.40;;;12.50;72.10;;;;;;5054601;28;20020;-75
2023/04/23 06:08:50;;;;;;;1.13;0.55;;;12.60;71.30;;;;;;5073068;28;20052;-75
2023/04/23 06:11:16;;;;;;;2.42;0.77;;;12.70;71.30;;;;;;5073296;28;20488;-74
2023/04/23 06:13:42;;;;;;;0.70;0.70;;;12.80;71.40;;;;;;5073207;28;20020;-74
2023/04/23 06:16:09;;;;;;;1.60;0.60;;;12.80;71.30;;;;;;5073138;28;20028;-75
2023/04/23 06:18:36;;;;;;;0.60;0.60;;;12.80;70.40;;;;;;5073399;28;20476;-75
2023/04/23 06:21:03;;;;;;;0.60;0.60;;;12.80;70.10;;;;;;5073183;28;20487;-74
2023/04/23 06:23:29;;;;;;;0.65;0.50;;;12.80;69.10;;;;;;5054979;28;20025;-74
2023/04/23 06:25:55;;;;;;;0.50;0.50;;;12.90;67.50;;;;;;5072961;28;20381;-73
2023/04/23 06:28:20;;;;;;;1.05;0.50;;;12.90;67.30;;;;;;5074568;28;20028;-74
2023/04/23 06:30:46;;;;;;;1.02;0.50;;;13.00;66.60;;;;;;5077182;28;20029;-74
2023/04/23 06:33:12;;;;;;;0.57;0.45;;;12.90;67.00;;;;;;5076959;28;20494;-74
2023/04/23 06:35:37;;;;;;;1.23;0.80;;;12.80;68.70;;;;;;5076427;28;20087;-74
2023/04/23 06:38:03;;;;;;;10.05;5.47;;;12.80;69.30;;;;;;5076896;28;20120;-74
2023/04/23 06:40:29;;;;;;;45.40;20.70;;;12.70;70.40;;;;;;5076828;28;20032;-74
2023/04/23 06:42:54;;;;;;;17.35;12.38;;;12.60;69.60;;;;;;5076758;28;20024;-74
2023/04/23 06:45:20;;;;;;;7.00;5.90;;;12.70;70.10;;;;;;5076676;28;20028;-74
2023/04/23 06:47:48;;;;;;;7.55;7.00;;;12.80;70.20;;;;;;5076616;28;20032;-74
2023/04/23 06:50:14;;;;;;;3.83;3.53;;;12.90;69.90;;;;;;5076645;28;20024;-75
2023/04/23 06:52:39;;;;;;;2.25;2.15;;;13.10;69.60;;;;;;5076311;28;20389;-73
2023/04/23 06:55:06;;;;;;;0.90;0.90;;;13.20;69.20;;;;;;5076190;28;20025;-73
2023/04/23 06:57:31;;;;;;;4.10;1.10;;;13.40;68.60;;;;;;5076846;28;20028;-75
2023/04/23 06:59:57;;;;;;;1.38;0.60;;;13.50;67.80;;;;;;5077270;28;20021;-73
2023/04/23 07:02:23;;;;;;;1.00;0.80;;;13.70;67.30;;;;;;5057896;28;20050;-75
2023/04/23 07:04:48;;;;;;;0.77;0.50;;;13.80;66.10;;;;;;5075822;28;20016;-74
2023/04/23 07:07:15;;;;;;;2.25;0.82;;;14.00;65.80;;;;;;5075902;28;20515;-73
2023/04/23 07:09:40;;;;;;;0.52;0.43;;;14.20;65.40;;;;;;5076022;28;20362;-76
2023/04/23 07:12:06;;;;;;;0.93;0.60;;;14.40;64.90;;;;;;5075861;28;20038;-76
2023/04/23 07:14:32;;;;;;;0.77;0.57;;;14.40;64.10;;;;;;5075905;28;20027;-75
2023/04/23 07:16:58;;;;;;;1.17;0.70;;;14.60;63.60;;;;;;5075716;28;20119;-75
2023/04/23 07:19:24;;;;;;;0.70;0.68;;;14.50;62.20;;;;;;5075802;28;20028;-75
2023/04/23 07:21:49;;;;;;;4.72;1.70;;;14.50;61.80;;;;;;5075770;28;20444;-77
2023/04/23 07:24:15;;;;;;;16.60;3.75;;;14.60;63.20;;;;;;5075845;28;20507;-76
2023/04/23 07:26:41;;;;;;;2.83;1.25;;;14.90;70.40;;;;;;5075660;28;20022;-75
2023/04/23 07:29:09;;;;;;;1.60;0.73;;;15.30;65.40;;;;;;5075309;28;20035;-76
2023/04/23 07:31:35;;;;;;;1.27;0.80;;;15.60;61.10;;;;;;5075649;28;20020;-74
2023/04/23 07:34:01;;;;;;;1.83;0.50;;;15.80;56.00;;;;;;5075556;28;20042;-75
2023/04/23 07:36:27;;;;;;;0.50;0.50;;;15.70;54.80;;;;;;5075420;28;20430;-75
2023/04/23 07:38:52;;;;;;;2.17;0.63;;;15.70;53.60;;;;;;5074872;28;20016;-75
2023/04/23 07:41:18;;;;;;;1.75;0.60;;;15.70;52.80;;;;;;5056316;28;20023;-75
2023/04/23 07:43:45;;;;;;;1.20;0.70;;;15.40;51.50;;;;;;5075022;28;20136;-73
2023/04/23 07:46:10;;;;;;;3.45;0.57;;;15.20;51.20;;;;;;5075097;28;20059;-74
2023/04/23 07:48:36;;;;;;;2.15;0.70;;;15.20;52.70;;;;;;5074993;28;20025;-73
2023/04/23 07:51:02;;;;;;;2.35;0.60;;;15.40;53.10;;;;;;5075363;28;20024;-74
2023/04/23 07:53:27;;;;;;;2.03;0.80;;;15.60;52.70;;;;;;5075632;28;20028;-74
2023/04/23 07:55:55;;;;;;;0.70;0.60;;;15.80;54.00;;;;;;5075249;28;20476;-74
2023/04/23 07:58:21;;;;;;;2.08;0.47;;;15.90;55.20;;;;;;5075065;28;20044;-74
2023/04/23 08:00:47;;;;;;;0.55;0.52;;;15.80;56.20;;;;;;5074997;28;20028;-74
2023/04/23 08:03:12;;;;;;;2.78;0.82;;;15.70;54.10;;;;;;5073622;28;20177;-74
2023/04/23 08:05:39;;;;;;;1.88;0.85;;;15.60;56.00;;;;;;5074820;28;20028;-74
2023/04/23 08:08:06;;;;;;;0.75;0.60;;;15.50;57.50;;;;;;5077981;28;20024;-74
2023/04/23 08:10:32;;;;;;;1.58;0.90;;;15.50;57.70;;;;;;5075025;28;20023;-74
2023/04/23 08:12:57;;;;;;;0.98;0.90;;;15.40;57.50;;;;;;5074914;28;20099;-74
2023/04/23 08:15:23;;;;;;;1.65;1.00;;;15.10;58.00;;;;;;5074750;28;20556;-73
2023/04/23 08:17:48;;;;;;;2.05;1.08;;;15.00;58.50;;;;;;5074642;28;20116;-74
2023/04/23 08:20:14;;;;;;;1.60;0.93;;;15.10;59.30;;;;;;5074784;28;20044;-74
2023/04/23 08:22:39;;;;;;;2.63;0.77;;;15.00;58.60;;;;;;5074751;28;20431;-75
2023/04/23 08:25:05;;;;;;;2.00;0.85;;;15.10;59.50;;;;;;5074723;28;20096;-75
2023/04/23 08:27:31;;;;;;;1.70;1.00;;;15.20;59.20;;;;;;5056479;28;20028;-74
2023/04/23 08:29:56;;;;;;;2.53;1.05;;;15.30;59.20;;;;;;5074499;28;20024;-74
2023/04/23 08:32:22;;;;;;;2.70;1.00;;;15.50;58.80;;;;;;5056525;28;20115;-75
2023/04/23 08:34:47;;;;;;;1.60;0.70;;;15.60;58.10;;;;;;5074174;28;20028;-74
2023/04/23 08:37:13;;;;;;;2.13;1.00;;;15.60;57.30;;;;;;5074464;28;20045;-75
2023/04/23 08:39:39;;;;;;;2.30;0.80;;;15.80;57.50;;;;;;5074121;28;20060;-75
2023/04/23 08:42:12;;;;;;;0.80;0.77;;;15.90;57.60;;;;;;5074675;28;20024;-75
2023/04/23 08:44:41;;;;;;;1.35;0.80;;;16.10;56.60;;;;;;5074295;28;20021;-75
2023/04/23 08:47:10;;;;;;;1.77;0.80;;;16.20;56.10;;;;;;5075146;28;20017;-75
2023/04/23 08:49:40;;;;;;;0.95;0.70;;;16.30;56.40;;;;;;5075288;28;20028;-75
2023/04/23 08:52:17;;;;;;;1.85;0.73;;;16.30;55.70;;;;;;5079983;28;20029;-74
2023/04/23 08:54:49;;;;;;;1.58;0.70;;;16.40;54.20;;;;;;5086354;28;20055;-74
2023/04/23 08:57:16;;;;;;;1.15;0.85;;;16.40;53.90;;;;;;5085627;28;20384;-75
2023/04/23 08:59:43;;;;;;;1.63;0.80;;;16.40;53.90;;;;;;5087300;28;20016;-75
2023/04/23 09:02:09;;;;;;;3.00;1.08;;;16.50;53.60;;;;;;5087980;28;20030;-74
2023/04/23 09:04:38;;;;;;;2.08;0.82;;;16.70;53.20;;;;;;5088778;28;20465;-73
2023/04/23 09:07:06;;;;;;;0.68;0.60;;;16.90;53.00;;;;;;5085005;28;20097;-74
2023/04/23 09:09:33;;;;;;;1.48;0.55;;;17.10;50.00;;;;;;5074763;28;20419;-77
2023/04/23 09:11:59;;;;;;;2.00;1.00;;;16.40;48.70;;;;;;5078694;28;20027;-75
2023/04/23 09:14:25;;;;;;;1.83;0.70;;;16.00;51.10;;;;;;5075632;28;20036;-76
2023/04/23 09:16:51;;;;;;;1.70;0.90;;;15.90;51.30;;;;;;5074788;28;20035;-75
2023/04/23 09:19:17;;;;;;;0.93;0.90;;;15.60;51.10;;;;;;5074452;28;20020;-75
2023/04/23 09:21:45;;;;;;;1.30;0.70;;;15.40;53.00;;;;;;5074155;28;20031;-77
2023/04/23 09:24:11;;;;;;;1.23;0.70;;;15.30;54.20;;;;;;5074536;28;20016;-74
2023/04/23 09:26:52;;;;;;;0.82;0.82;;;15.30;54.40;;;;;;5056584;28;20028;-74
2023/04/23 09:29:24;;;;;;;1.65;0.70;;;15.40;54.30;;;;;;5055430;28;20021;-75
2023/04/23 09:32:03;;;;;;;2.13;0.63;;;15.80;54.30;;;;;;5073374;28;20055;-76
2023/04/23 09:34:28;;;;;;;2.55;0.65;;;16.10;52.60;;;;;;5058465;28;20031;-76
2023/04/23 09:36:54;;;;;;;1.08;0.70;;;16.70;52.00;;;;;;5073158;28;20044;-76
2023/04/23 09:39:23;;;;;;;1.95;0.57;;;16.90;50.30;;;;;;5055740;28;20538;-74
2023/04/23 09:41:51;;;;;;;2.00;0.65;;;16.90;48.60;;;;;;5073373;28;20471;-75
2023/04/23 09:44:21;;;;;;;1.75;0.60;;;17.10;50.00;;;;;;5073315;28;20039;-75
2023/04/23 09:46:47;;;;;;;0.57;0.40;;;16.70;49.50;;;;;;5073106;28;20054;-75
2023/04/23 09:49:14;;;;;;;2.80;0.73;;;16.80;48.40;;;;;;5072701;28;20052;-75
2023/04/23 09:51:41;;;;;;;0.50;0.50;;;16.90;50.50;;;;;;5071507;28;20468;-75
2023/04/23 09:54:12;;;;;;;1.45;0.68;;;16.90;48.80;;;;;;5073024;28;20023;-76
2023/04/23 09:56:38;;;;;;;2.15;0.70;;;17.10;47.90;;;;;;5070981;28;20028;-75
2023/04/23 09:59:20;;;;;;;0.77;0.57;;;17.10;48.10;;;;;;5071448;28;20540;-73
2023/04/23 10:01:45;;;;;;;0.50;0.50;;;17.20;48.60;;;;;;5068940;28;20621;-74
2023/04/23 10:04:16;;;;;;;0.80;0.32;;;17.40;47.60;;;;;;5070847;28;20035;-75
2023/04/23 10:06:42;;;;;;;0.32;0.32;;;17.70;47.40;;;;;;5068740;28;20017;-75
2023/04/23 10:09:08;;;;;;;0.52;0.50;;;17.50;46.70;;;;;;5071128;28;20354;-75
2023/04/23 10:11:35;;;;;;;0.88;0.40;;;17.40;47.00;;;;;;5071036;28;20039;-75
2023/04/23 10:14:02;;;;;;;1.80;0.63;;;17.40;47.50;;;;;;5068429;28;20020;-76
2023/04/23 10:16:27;;;;;;;1.50;0.60;;;17.60;47.10;;;;;;5071040;28;20074;-76
2023/04/23 10:18:55;;;;;;;1.05;0.50;;;17.90;47.20;;;;;;5071172;28;20021;-75
2023/04/23 10:21:28;;;;;;;0.93;0.38;;;18.30;46.00;;;;;;5068527;28;20400;-75
2023/04/23 10:23:57;;;;;;;1.63;0.38;;;18.30;45.20;;;;;;5071029;28;20031;-75
2023/04/23 10:26:24;;;;;;;2.13;0.85;;;18.40;45.30;;;;;;5068919;28;20051;-76
2023/04/23 10:28:53;;;;;;;0.85;0.40;;;18.50;45.40;;;;;;5071265;28;20012;-76
2023/04/23 10:31:20;;;;;;;0.95;0.63;;;18.00;44.60;;;;;;5070938;28;20029;-74
2023/04/23 10:33:49;;;;;;;0.70;0.40;;;17.90;46.20;;;;;;5070925;28;20099;-75
2023/04/23 10:36:16;;;;;;;1.90;0.52;;;17.70;46.70;;;;;;5071237;28;20040;-74
2023/04/23 10:38:42;;;;;;;0.30;0.30;;;17.70;46.40;;;;;;5054388;28;20064;-75
2023/04/23 10:41:08;;;;;;;0.50;0.50;;;17.90;47.80;;;;;;5054491;28;20020;-75
2023/04/23 10:43:34;;;;;;;1.45;0.40;;;18.20;45.90;;;;;;5072141;28;20067;-78
2023/04/23 10:46:01;;;;;;;1.10;0.70;;;18.20;45.60;;;;;;5072231;28;20023;-76
2023/04/23 10:49:08;;;;;;;0.90;0.50;;;18.10;47.40;;;;;;5054350;28;20489;-77
2023/04/23 10:51:35;;;;;;;1.05;0.40;;;18.00;45.90;;;;;;5072164;28;20085;-77
2023/04/23 10:54:03;;;;;;;1.25;0.40;;;18.10;46.60;;;;;;5072087;28;20017;-77
2023/04/23 10:56:29;;;;;;;6.22;1.10;;;18.30;47.50;;;;;;5054153;28;20025;-76
2023/04/23 10:58:55;;;;;;;2.83;1.00;;;18.20;45.80;;;;;;5072151;28;20095;-76
2023/04/23 11:01:32;;;;;;;1.65;0.43;;;18.10;46.40;;;;;;5072106;28;20029;-77
2023/04/23 11:03:59;;;;;;;2.85;0.63;;;18.00;46.10;;;;;;5070927;28;20028;-76
2023/04/23 11:06:49;;;;;;;2.45;0.60;;;18.10;47.10;;;;;;5070442;28;20048;-76
2023/04/23 11:09:28;;;;;;;3.70;0.63;;;18.20;47.30;;;;;;5070001;28;20099;-76
2023/04/23 11:11:54;;;;;;;4.50;1.35;;;18.40;45.60;;;;;;5070447;28;20015;-74
2023/04/23 11:14:21;;;;;;;1.52;0.60;;;18.50;46.40;;;;;;5071591;28;20033;-74
2023/04/23 11:16:47;;;;;;;1.15;0.55;;;18.70;45.00;;;;;;5075267;28;20377;-75
2023/04/23 11:19:14;;;;;;;3.33;0.70;;;18.90;44.50;;;;;;5075387;28;20028;-75
2023/04/23 11:22:03;;;;;;;4.28;0.80;;;19.20;43.80;;;;;;5057223;28;20393;-75
2023/04/23 11:24:40;;;;;;;2.38;0.82;;;19.10;43.90;;;;;;5075289;28;20055;-74
2023/04/23 11:27:15;;;;;;;4.60;1.02;;;18.90;42.70;;;;;;5075079;28;20521;-76
2023/04/23 11:29:42;;;;;;;3.28;0.90;;;18.80;43.60;;;;;;5075438;28;20032;-75
2023/04/23 11:32:12;;;;;;;2.22;0.88;;;18.50;43.80;;;;;;5075276;28;20028;-74
2023/04/23 11:34:42;;;;;;;1.15;0.70;;;18.30;44.60;;;;;;5075121;28;20017;-73
2023/04/23 11:37:14;;;;;;;3.58;1.00;;;18.10;45.40;;;;;;5075073;28;20032;-76
2023/04/23 11:39:41;;;;;;;2.15;0.77;;;17.90;45.60;;;;;;5075197;28;20032;-81
2023/04/23 11:42:10;;;;;;;2.30;1.23;;;18.10;45.40;;;;;;5075418;28;20013;-76
2023/04/23 11:44:40;;;;;;;4.45;1.17;;;18.40;44.90;;;;;;5075201;28;20064;-77
2023/04/23 11:47:11;;;;;;;2.15;0.73;;;18.90;45.10;;;;;;5057290;28;20400;-80
2023/04/23 11:49:38;;;;;;;3.70;1.05;;;19.50;44.10;;;;;;5074988;28;20016;-77
2023/04/23 11:52:04;;;;;;;1.33;0.95;;;19.70;41.10;;;;;;5075010;28;20027;-77
2023/04/23 11:54:30;;;;;;;4.35;1.20;;;19.30;40.60;;;;;;5075140;28;20021;-84
2023/04/23 11:56:57;;;;;;;2.60;0.93;;;19.50;41.30;;;;;;5075140;28;20040;-75
2023/04/23 11:59:23;;;;;;;3.58;1.02;;;19.40;40.70;;;;;;5074978;28;20028;-73
2023/04/23 12:01:56;;;;;;;1.67;0.77;;;19.60;39.20;;;;;;5074911;28;20465;-75
2023/04/23 12:04:28;;;;;;;5.53;1.10;;;19.80;39.60;;;;;;5057166;28;20116;-79
2023/04/23 12:06:56;;;;;;;2.88;1.15;;;19.90;39.10;;;;;;5073891;28;20021;-78
2023/04/23 12:09:24;;;;;;;1.98;0.98;;;19.80;40.20;;;;;;5053249;28;20023;-80
2023/04/23 12:11:50;;;;;;;2.53;1.23;;;20.00;40.90;;;;;;5073839;28;20017;-83
2023/04/23 12:14:20;;;;;;;4.43;1.10;;;19.80;41.20;;;;;;5056087;28;20016;-78
2023/04/23 12:16:51;;;;;;;2.15;0.77;;;20.00;39.50;;;;;;5071516;28;20040;-77
2023/04/23 12:19:25;;;;;;;3.83;0.95;;;20.20;40.20;;;;;;5074762;28;20663;-78
2023/04/23 12:21:55;;;;;;;2.13;1.00;;;20.60;39.00;;;;;;5070512;28;20019;-77
2023/04/23 12:24:22;;;;;;;2.38;1.00;;;20.60;37.70;;;;;;5073109;28;20016;-79
2023/04/23 12:26:53;;;;;;;2.60;0.82;;;20.70;38.20;;;;;;5073748;28;20523;-76
2023/04/23 12:29:19;;;;;;;2.85;0.95;;;20.60;37.60;;;;;;5068011;28;20028;-79
2023/04/23 12:31:44;;;;;;;5.05;1.42;;;20.40;38.30;;;;;;5080261;28;20032;-76
2023/04/23 12:34:13;;;;;;;6.70;1.42;;;20.10;38.10;;;;;;5054788;28;20410;-78
2023/04/23 12:36:42;;;;;;;5.10;1.23;;;19.80;38.80;;;;;;5076185;28;20044;-80
2023/04/23 12:39:30;;;;;;;2.17;1.23;;;19.90;40.80;;;;;;5076736;28;20020;-83
2023/04/23 12:42:04;;;;;;;3.75;1.10;;;20.20;39.10;;;;;;5074425;28;20445;-78
2023/04/23 12:44:30;;;;;;;3.88;1.30;;;20.40;39.70;;;;;;5055753;28;20125;-78